Time;durP1;ratioP1;P1;durP2;ratioP2;P2;SDS_P1;SDS_P2;PMS_P1;PMS_P2;Temp;Humidity;BMP_temperature;BMP_pressure;BME280_temperature;BME280_humidity;BME280_pressure;Samples;Min_cycle;Max_cycle;Signal;HPM_P1;HPM_P2
2022/01/14 00:02:15;;;;;;;4.93;4.65;;;;;;;4.02;100.00;103934.09;6246890;23;20010;-67
2022/01/14 00:04:41;;;;;;;4.60;4.30;;;;;;;3.93;100.00;103939.97;6246563;23;20000;-68
2022/01/14 00:07:06;;;;;;;2.95;2.85;;;;;;;3.94;100.00;103930.34;6219961;23;20402;-68
2022/01/14 00:09:33;;;;;;;4.95;4.55;;;;;;;3.98;100.00;103917.34;6246470;23;20342;-68
2022/01/14 00:12:00;;;;;;;4.10;3.90;;;;;;;3.97;100.00;103925.19;6246245;23;20434;-68
2022/01/14 00:14:43;;;;;;;4.10;3.90;;;;;;;3.97;100.00;103917.31;6246806;23;20007;-68
2022/01/14 00:17:11;;;;;;;4.03;3.83;;;;;;;3.85;100.00;103916.88;6247523;23;20000;-67
2022/01/14 00:19:37;;;;;;;4.38;4.18;;;;;;;3.95;100.00;103912.00;6246875;23;20008;-67
2022/01/14 00:22:09;;;;;;;5.22;4.88;;;;;;;3.84;100.00;103912.47;6246808;23;20004;-67
2022/01/14 00:33:08;;;;;;;5.80;5.50;;;;;;;3.62;100.00;103889.84;6246168;23;20058;-68
2022/01/14 00:35:41;;;;;;;4.78;4.47;;;;;;;3.70;100.00;103892.72;6246660;23;20075;-68
2022/01/14 00:38:08;;;;;;;4.93;4.63;;;;;;;3.82;100.00;103894.00;6246598;23;20039;-67
2022/01/14 00:40:34;;;;;;;5.25;4.95;;;;;;;3.74;100.00;103899.84;6246244;23;20384;-67
2022/01/14 00:42:59;;;;;;;5.63;5.28;;;;;;;3.70;100.00;103898.88;6246289;23;20012;-68
2022/01/14 00:45:25;;;;;;;3.80;3.60;;;;;;;3.76;100.00;103893.81;6246555;23;20005;-68
2022/01/14 00:47:51;;;;;;;4.47;4.28;;;;;;;3.82;100.00;103894.00;6246558;23;20008;-68
2022/01/14 00:50:19;;;;;;;6.03;5.63;;;;;;;3.83;100.00;103889.66;6219586;23;20095;-68
2022/01/14 00:52:45;;;;;;;4.80;4.50;;;;;;;3.76;100.00;103888.56;6246467;23;20333;-68
2022/01/14 00:55:15;;;;;;;6.07;5.75;;;;;;;3.76;100.00;103887.66;6246165;23;20008;-68
2022/01/14 01:00:28;;;;;;;4.95;4.65;;;;;;;3.67;100.00;103879.47;6257005;23;20341;-68
2022/01/14 01:02:54;;;;;;;5.70;5.40;;;;;;;3.64;100.00;103877.63;6246489;23;19999;-67
2022/01/14 01:05:20;;;;;;;4.63;4.43;;;;;;;3.64;100.00;103887.25;6246347;23;20063;-68
2022/01/14 01:08:02;;;;;;;3.85;3.65;;;;;;;3.68;100.00;103870.72;6219556;23;20011;-67
2022/01/14 01:10:28;;;;;;;3.25;3.05;;;;;;;3.67;100.00;103867.19;6247356;23;20088;-67
2022/01/14 01:12:59;;;;;;;4.45;4.15;;;;;;;3.71;100.00;103873.47;6246214;23;20027;-68
2022/01/14 01:15:24;;;;;;;4.90;4.60;;;;;;;3.57;100.00;103867.75;6246802;23;20004;-68
2022/01/14 01:17:50;;;;;;;4.63;4.32;;;;;;;3.60;100.00;103869.56;6246367;23;20046;-68
2022/01/14 01:20:18;;;;;;;4.40;4.20;;;;;;;3.60;100.00;103864.31;6246588;23;20001;-68
2022/01/14 01:22:48;;;;;;;4.80;4.53;;;;;;;3.66;100.00;103857.53;6246122;23;20430;-67
2022/01/14 01:25:16;;;;;;;5.15;4.75;;;;;;;3.53;100.00;103867.59;6219530;23;20008;-68
2022/01/14 01:27:43;;;;;;;5.18;4.88;;;;;;;3.50;100.00;103873.63;6220293;23;20004;-69
2022/01/14 01:32:59;;;;;;;5.65;5.35;;;;;;;3.46;100.00;103860.34;6201001;23;20341;-68
2022/01/14 01:35:25;;;;;;;4.22;3.90;;;;;;;3.32;100.00;103857.25;6220932;23;20057;-69
2022/01/14 01:37:51;;;;;;;4.30;4.10;;;;;;;3.38;100.00;103856.53;6216345;23;20016;-69
2022/01/14 01:40:19;;;;;;;4.55;4.35;;;;;;;3.32;100.00;103853.72;6217712;23;20007;-69
2022/01/14 01:42:45;;;;;;;4.03;3.83;;;;;;;3.28;100.00;103849.22;6218802;23;20082;-70
2022/01/14 01:45:14;;;;;;;4.57;4.28;;;;;;;3.33;100.00;103847.59;6217620;23;20009;-69
2022/01/14 01:47:41;;;;;;;5.45;5.10;;;;;;;3.43;100.00;103853.25;6218058;23;20040;-69
2022/01/14 01:50:16;;;;;;;4.65;4.43;;;;;;;3.28;100.00;103857.09;6218294;23;20059;-68
2022/01/14 01:52:42;;;;;;;5.05;4.75;;;;;;;3.26;100.00;103853.50;6218370;23;20076;-68
2022/01/14 01:55:08;;;;;;;4.25;4.05;;;;;;;3.22;100.00;103851.59;6217718;23;20012;-69
2022/01/14 01:57:35;;;;;;;4.50;4.30;;;;;;;3.20;100.00;103858.56;6217548;23;20012;-69
2022/01/14 02:00:01;;;;;;;4.60;4.40;;;;;;;3.17;100.00;103857.59;6217748;23;20008;-69
2022/01/14 02:02:27;;;;;;;5.28;4.97;;;;;;;3.03;100.00;103852.69;6217361;23;20000;-69
2022/01/14 02:04:53;;;;;;;4.70;4.43;;;;;;;3.15;100.00;103859.25;6215290;23;20020;-68
2022/01/14 02:07:18;;;;;;;4.90;4.60;;;;;;;3.03;100.00;103864.09;6216929;23;20434;-68
2022/01/14 02:09:43;;;;;;;5.15;4.85;;;;;;;3.05;100.00;103874.66;6217035;23;20004;-68
2022/01/14 02:12:11;;;;;;;3.72;3.53;;;;;;;3.02;100.00;103872.81;6216801;23;20001;-67
2022/01/14 02:22:10;;;;;;;4.55;4.28;;;;;;;3.13;100.00;103874.09;6227959;23;20326;-68
2022/01/14 02:22:46;;;;;;;3.70;3.50;;;;;;;3.18;100.00;103869.88;6217095;23;20402;-68
2022/01/14 02:25:12;;;;;;;4.28;4.07;;;;;;;3.33;100.00;103872.16;6216951;23;20009;-67
2022/01/14 02:27:37;;;;;;;4.10;3.90;;;;;;;3.25;100.00;103870.13;6216864;23;20011;-68
2022/01/14 02:30:05;;;;;;;4.38;4.13;;;;;;;3.21;100.00;103871.72;6217021;23;20009;-68
2022/01/14 02:32:30;;;;;;;5.75;5.45;;;;;;;3.20;100.00;103869.94;6217314;23;20332;-68
2022/01/14 02:34:55;;;;;;;4.32;4.13;;;;;;;3.22;100.00;103864.72;6216755;23;20040;-68
2022/01/14 02:37:21;;;;;;;4.22;4.03;;;;;;;3.13;100.00;103860.97;6221555;23;20134;-68
2022/01/14 02:39:47;;;;;;;3.42;3.22;;;;;;;3.21;100.00;103871.72;6247158;23;20000;-69
2022/01/14 02:42:12;;;;;;;4.20;4.00;;;;;;;3.10;100.00;103867.84;6219926;23;20417;-68
2022/01/14 02:44:38;;;;;;;4.60;4.32;;;;;;;3.14;100.00;103878.50;6246910;23;20004;-68
2022/01/14 02:47:05;;;;;;;4.82;4.53;;;;;;;3.06;100.00;103871.16;6246932;23;19997;-69
2022/01/14 02:49:33;;;;;;;4.05;3.85;;;;;;;3.17;100.00;103874.19;6247075;23;20008;-68
2022/01/14 02:52:04;;;;;;;4.75;4.45;;;;;;;3.08;100.00;103869.50;6219239;23;20004;-68
2022/01/14 02:55:01;;;;;;;5.55;5.25;;;;;;;3.02;100.00;103883.31;6246893;23;20079;-69
2022/01/14 02:57:17;;;;;;;4.25;4.05;;;;;;;2.93;100.00;103882.09;6244359;23;20004;-68
2022/01/14 02:59:43;;;;;;;4.20;4.00;;;;;;;3.08;100.00;103890.50;6246771;23;20007;-68
2022/01/14 03:02:11;;;;;;;5.45;5.15;;;;;;;3.10;100.00;103881.84;6246831;23;20038;-69
2022/01/14 03:04:41;;;;;;;4.25;4.05;;;;;;;3.06;100.00;103879.03;6246552;23;20008;-69
2022/01/14 03:07:08;;;;;;;4.65;4.45;;;;;;;3.07;100.00;103888.72;6246775;23;20010;-69
2022/01/14 03:09:35;;;;;;;4.88;4.57;;;;;;;3.09;100.00;103898.44;6247140;23;20067;-68
2022/01/14 03:12:02;;;;;;;4.25;4.05;;;;;;;3.05;100.00;103899.19;6219939;23;20072;-68
2022/01/14 03:14:27;;;;;;;4.68;4.38;;;;;;;3.17;100.00;103896.09;6246624;23;20008;-69
2022/01/14 03:16:58;;;;;;;3.35;3.15;;;;;;;3.17;100.00;103897.00;6219653;23;20310;-69
2022/01/14 03:19:25;;;;;;;3.88;3.67;;;;;;;3.12;100.00;103898.53;6246699;23;20012;-68
2022/01/14 03:21:56;;;;;;;4.78;4.47;;;;;;;3.04;100.00;103886.88;6219723;23;20030;-68
2022/01/14 03:27:10;;;;;;;3.80;3.60;;;;;;;3.06;100.00;103893.06;6204003;23;20089;-68
2022/01/14 03:29:36;;;;;;;3.40;3.20;;;;;;;3.07;100.00;103881.72;6246292;23;20000;-69
2022/01/14 03:32:03;;;;;;;4.45;4.25;;;;;;;3.18;100.00;103885.63;6246320;23;20008;-68
2022/01/14 03:34:29;;;;;;;4.78;4.47;;;;;;;3.01;100.00;103883.22;6247036;23;20054;-68
2022/01/14 03:36:54;;;;;;;6.85;3.97;;;;;;;3.00;100.00;103879.72;6219668;23;20001;-68
2022/01/14 03:39:20;;;;;;;3.13;2.92;;;;;;;2.92;100.00;103882.91;6246232;23;20503;-68
2022/01/14 03:41:47;;;;;;;4.00;3.80;;;;;;;3.00;100.00;103863.97;6246438;23;20011;-68
2022/01/14 03:44:12;;;;;;;5.03;4.63;;;;;;;2.96;100.00;103856.81;6246464;23;20079;-68
2022/01/14 03:46:38;;;;;;;3.70;3.50;;;;;;;2.82;100.00;103862.44;6246381;23;20370;-70
2022/01/14 03:49:03;;;;;;;5.10;4.80;;;;;;;2.75;100.00;103866.56;6246472;23;20381;-68
2022/01/14 03:51:29;;;;;;;4.35;4.15;;;;;;;2.70;100.00;103870.72;6246124;23;20007;-68
2022/01/14 03:53:55;;;;;;;4.25;4.03;;;;;;;2.85;100.00;103862.53;6246223;23;20008;-68
2022/01/14 03:56:23;;;;;;;4.68;4.35;;;;;;;2.76;100.00;103870.03;6245843;23;20421;-69
2022/01/14 03:58:48;;;;;;;3.28;3.08;;;;;;;2.69;100.00;103865.41;6246732;23;20003;-69
2022/01/14 04:01:13;;;;;;;3.15;2.95;;;;;;;2.74;100.00;103851.63;6245145;23;20083;-69
2022/01/14 04:03:40;;;;;;;4.93;4.65;;;;;;;2.80;100.00;103853.59;6245927;23;20291;-68
2022/01/14 04:06:05;;;;;;;5.05;4.75;;;;;;;2.76;100.00;103844.69;6245695;23;20004;-69
2022/01/14 04:08:32;;;;;;;3.92;3.72;;;;;;;2.71;100.00;103850.63;6246452;23;20008;-68
2022/01/14 04:11:00;;;;;;;4.47;4.22;;;;;;;2.72;100.00;103857.66;6246366;23;20004;-68
2022/01/14 04:13:39;;;;;;;3.50;3.30;;;;;;;2.75;100.00;103848.19;6246401;23;20322;-68
2022/01/14 04:16:05;;;;;;;4.72;4.53;;;;;;;2.64;100.00;103852.13;6246743;23;20360;-68
2022/01/14 04:18:31;;;;;;;4.22;4.03;;;;;;;2.60;100.00;103841.47;6245814;23;20027;-68
2022/01/14 04:20:56;;;;;;;5.32;5.03;;;;;;;2.62;100.00;103839.78;6246359;23;20062;-68
2022/01/14 04:23:22;;;;;;;4.28;4.07;;;;;;;2.44;100.00;103841.72;6245874;23;20028;-68
2022/01/14 04:25:51;;;;;;;4.25;4.03;;;;;;;2.42;100.00;103838.13;6246376;23;20012;-69
2022/01/14 04:28:18;;;;;;;4.60;4.30;;;;;;;2.35;100.00;103825.66;6219320;23;20023;-69
2022/01/14 04:30:44;;;;;;;4.57;4.30;;;;;;;2.20;100.00;103828.56;6246519;23;20004;-68
2022/01/14 04:33:09;;;;;;;4.72;4.43;;;;;;;2.10;100.00;103828.13;6218855;23;20038;-69
2022/01/14 04:35:35;;;;;;;3.70;3.50;;;;;;;2.22;100.00;103823.38;6245901;23;20004;-68
2022/01/14 04:38:01;;;;;;;4.53;4.32;;;;;;;2.20;100.00;103823.31;6246356;23;20017;-68
2022/01/14 04:40:26;;;;;;;5.40;5.03;;;;;;;2.11;100.00;103816.81;6219595;23;20008;-69
2022/01/14 04:42:53;;;;;;;6.63;6.13;;;;;;;2.03;100.00;103813.91;6219682;23;20325;-68
2022/01/14 04:48:07;;;;;;;5.93;5.63;;;;;;;1.95;100.00;103801.31;6256587;23;20078;-69
2022/01/14 04:50:33;;;;;;;5.50;5.20;;;;;;;1.92;100.00;103807.34;6246107;23;20004;-68
2022/01/14 04:52:59;;;;;;;5.35;5.05;;;;;;;2.16;100.00;103817.91;6246482;23;20031;-69
2022/01/14 04:55:26;;;;;;;6.70;6.30;;;;;;;2.17;100.00;103810.09;6246250;23;20162;-69
2022/01/14 04:57:54;;;;;;;7.68;7.28;;;;;;;2.22;100.00;103812.88;6220024;23;20020;-69
2022/01/14 05:00:22;;;;;;;5.57;5.28;;;;;;;2.34;100.00;103813.34;6219350;23;20004;-68
2022/01/14 05:02:48;;;;;;;6.43;5.93;;;;;;;2.29;100.00;103807.03;6246379;23;20073;-68
2022/01/14 05:05:17;;;;;;;6.47;6.13;;;;;;;2.32;100.00;103804.53;6246333;23;20083;-68
2022/01/14 05:07:44;;;;;;;7.20;6.80;;;;;;;2.32;100.00;103799.28;6247645;23;20008;-68
2022/01/14 05:12:44;;;;;;;4.95;4.65;;;;;;;2.39;100.00;103806.56;6258971;23;20019;-68
2022/01/14 05:15:11;;;;;;;6.25;5.95;;;;;;;2.42;100.00;103791.84;6248343;23;20356;-68
2022/01/14 05:17:37;;;;;;;5.25;4.95;;;;;;;2.48;100.00;103792.06;6221115;23;20004;-69
2022/01/14 05:20:04;;;;;;;5.95;5.65;;;;;;;2.44;100.00;103789.25;6222253;23;20004;-69
2022/01/14 05:22:29;;;;;;;5.85;5.55;;;;;;;2.54;100.00;103776.53;6248248;23;20139;-67
2022/01/14 05:24:55;;;;;;;6.28;5.97;;;;;;;2.54;100.00;103767.75;6248388;23;20023;-68
2022/01/14 05:27:21;;;;;;;4.72;4.50;;;;;;;2.41;100.00;103773.41;6247995;23;20012;-67
2022/01/14 05:29:46;;;;;;;7.38;6.97;;;;;;;2.48;100.00;103768.44;6247235;23;20338;-68
2022/01/14 05:32:14;;;;;;;5.28;4.97;;;;;;;2.44;100.00;103763.91;6247179;23;20011;-67
2022/01/14 05:34:40;;;;;;;6.00;5.60;;;;;;;2.47;100.00;103764.06;6247477;23;20079;-68
2022/01/14 05:37:06;;;;;;;4.30;4.10;;;;;;;2.46;100.00;103767.50;6246808;23;20000;-68
2022/01/14 05:39:32;;;;;;;4.97;4.68;;;;;;;2.50;100.00;103779.00;6247307;23;20012;-67
2022/01/14 05:42:00;;;;;;;4.55;4.35;;;;;;;2.50;100.00;103779.00;6220077;23;20004;-67
2022/01/14 05:44:26;;;;;;;6.43;6.10;;;;;;;2.51;100.00;103775.53;6247331;23;20030;-67
2022/01/14 05:46:52;;;;;;;5.18;4.88;;;;;;;2.57;100.00;103771.41;6247361;23;20000;-68
2022/01/14 05:49:17;;;;;;;4.15;3.95;;;;;;;2.58;100.00;103781.06;6246912;23;20078;-69
2022/01/14 05:51:43;;;;;;;4.78;4.47;;;;;;;2.53;100.00;103790.50;6246918;23;20004;-69
2022/01/14 05:54:08;;;;;;;4.50;4.28;;;;;;;2.67;100.00;103781.41;6247127;23;20054;-66
2022/01/14 05:56:34;;;;;;;5.00;4.70;;;;;;;2.56;100.00;103790.59;6247224;23;20080;-67
2022/01/14 05:58:59;;;;;;;4.63;4.43;;;;;;;2.56;100.00;103780.13;6247423;23;20080;-67
2022/01/14 06:01:24;;;;;;;4.68;4.47;;;;;;;2.52;100.00;103793.06;6247180;23;20011;-67
2022/01/14 06:03:50;;;;;;;3.97;3.78;;;;;;;2.54;100.00;103794.00;6246815;23;20015;-68
2022/01/14 06:06:15;;;;;;;4.63;4.38;;;;;;;2.53;100.00;103794.84;6219852;23;20004;-68
2022/01/14 06:08:40;;;;;;;5.07;4.78;;;;;;;2.56;100.00;103800.19;6247620;23;20066;-69
2022/01/14 06:11:08;;;;;;;4.38;4.18;;;;;;;2.63;100.00;103782.09;6246276;23;20008;-68
2022/01/14 06:13:33;;;;;;;4.60;4.40;;;;;;;2.60;100.00;103796.88;6248322;23;20095;-68
2022/01/14 06:16:12;;;;;;;5.00;4.70;;;;;;;2.58;100.00;103785.41;6247661;23;20677;-66
2022/01/14 06:18:38;;;;;;;5.55;5.20;;;;;;;2.62;100.00;103784.69;6247827;23;20004;-67
2022/01/14 06:21:04;;;;;;;4.40;4.20;;;;;;;2.55;100.00;103782.69;6220857;23;20035;-68
2022/01/14 06:23:30;;;;;;;4.80;4.55;;;;;;;2.59;100.00;103782.84;6248466;23;20019;-66
2022/01/14 06:25:55;;;;;;;6.10;5.80;;;;;;;2.53;100.00;103785.25;6247562;23;20004;-67
2022/01/14 06:28:21;;;;;;;4.00;3.80;;;;;;;2.52;100.00;103787.81;6247374;23;20000;-67
2022/01/14 06:30:46;;;;;;;4.88;4.57;;;;;;;2.68;100.00;103780.56;6247605;23;20004;-67
2022/01/14 06:33:11;;;;;;;4.30;4.10;;;;;;;2.76;100.00;103780.81;6247714;23;20038;-67
2022/01/14 06:35:37;;;;;;;3.90;3.70;;;;;;;2.57;100.00;103786.28;6220533;23;20022;-68
2022/01/14 06:38:03;;;;;;;5.72;5.43;;;;;;;2.62;100.00;103785.59;6247520;23;20008;-67
2022/01/14 06:40:29;;;;;;;5.95;5.65;;;;;;;2.67;100.00;103778.78;6247456;23;20119;-69
2022/01/14 06:42:55;;;;;;;5.65;5.35;;;;;;;2.54;100.00;103779.16;6247579;23;20058;-70
2022/01/14 06:45:21;;;;;;;5.80;5.50;;;;;;;2.58;100.00;103783.69;6220121;23;20008;-67
2022/01/14 06:47:46;;;;;;;5.18;4.88;;;;;;;2.52;100.00;103793.94;6247084;23;20004;-67
2022/01/14 06:50:12;;;;;;;4.50;4.30;;;;;;;2.55;100.00;103787.94;6247099;23;20007;-67
2022/01/14 06:52:37;;;;;;;3.90;3.70;;;;;;;2.70;100.00;103799.88;6247099;23;20004;-67
2022/01/14 06:55:03;;;;;;;4.82;4.53;;;;;;;2.60;100.00;103810.00;6246275;23;20091;-68
2022/01/14 06:57:28;;;;;;;4.63;4.38;;;;;;;2.54;100.00;103826.38;6246786;23;20004;-66
2022/01/14 06:59:54;;;;;;;4.40;4.18;;;;;;;2.53;100.00;103815.84;6247387;23;20417;-68
2022/01/14 07:02:20;;;;;;;4.55;4.30;;;;;;;2.47;100.00;103811.25;6247512;23;20007;-67
2022/01/14 07:04:45;;;;;;;4.35;4.15;;;;;;;2.57;100.00;103812.50;6246822;23;20061;-67
2022/01/14 07:07:10;;;;;;;4.30;4.10;;;;;;;2.61;100.00;103817.00;6220299;23;20004;-68
2022/01/14 07:09:36;;;;;;;4.10;3.90;;;;;;;2.54;100.00;103829.00;6247504;23;20444;-68
2022/01/14 07:12:02;;;;;;;4.18;3.97;;;;;;;2.67;100.00;103819.84;6220316;23;20011;-67
2022/01/14 07:14:29;;;;;;;4.15;3.95;;;;;;;2.59;100.00;103814.34;6220998;23;20304;-67
2022/01/14 07:16:55;;;;;;;4.70;4.40;;;;;;;2.64;100.00;103819.75;6247017;23;20004;-69
2022/01/14 07:19:22;;;;;;;5.15;4.75;;;;;;;2.73;100.00;103810.47;6249692;23;20020;-67
2022/01/14 07:21:47;;;;;;;4.20;4.00;;;;;;;2.62;100.00;103810.91;6249896;23;20047;-67
2022/01/14 07:24:13;;;;;;;4.32;4.13;;;;;;;2.58;100.00;103807.31;6248011;23;20008;-67
2022/01/14 07:26:39;;;;;;;4.38;4.18;;;;;;;2.57;100.00;103812.50;6248483;23;20477;-69
2022/01/14 07:29:05;;;;;;;4.22;4.03;;;;;;;2.63;100.00;103825.84;6248006;23;20008;-68
2022/01/14 07:31:30;;;;;;;4.90;4.60;;;;;;;2.61;100.00;103823.16;6251534;23;20011;-70
2022/01/14 07:33:55;;;;;;;3.95;3.75;;;;;;;2.52;100.00;103825.41;6247118;23;20345;-67
2022/01/14 07:36:21;;;;;;;3.72;3.53;;;;;;;2.56;100.00;103827.34;6248656;23;20028;-68
2022/01/14 07:38:46;;;;;;;4.00;3.80;;;;;;;2.59;100.00;103826.53;6217059;23;20069;-69
2022/01/14 07:41:12;;;;;;;5.00;4.70;;;;;;;2.55;100.00;103830.78;6218676;23;20064;-67
2022/01/14 07:43:37;;;;;;;4.20;4.00;;;;;;;2.61;100.00;103828.41;6218532;23;20033;-66
2022/01/14 07:46:04;;;;;;;4.30;4.10;;;;;;;2.56;100.00;103839.56;6218095;23;20004;-67
2022/01/14 07:48:29;;;;;;;3.97;3.78;;;;;;;2.57;100.00;103826.50;6218040;23;20012;-68
2022/01/14 07:50:54;;;;;;;3.88;3.67;;;;;;;2.61;100.00;103833.66;6217828;23;20103;-69
2022/01/14 07:53:20;;;;;;;4.75;4.50;;;;;;;2.68;100.00;103842.63;6216752;23;20012;-67
2022/01/14 07:55:46;;;;;;;4.57;4.38;;;;;;;2.57;100.00;103833.50;6217849;23;20394;-68
2022/01/14 07:58:11;;;;;;;4.55;4.35;;;;;;;2.63;100.00;103833.72;6217320;23;20054;-67
2022/01/14 08:00:38;;;;;;;4.57;4.35;;;;;;;2.62;100.00;103835.44;6217308;23;20036;-67
2022/01/14 08:03:04;;;;;;;4.45;4.20;;;;;;;2.66;100.00;103832.06;6214917;23;20024;-66
2022/01/14 08:05:30;;;;;;;4.20;4.00;;;;;;;2.75;100.00;103823.66;6217237;23;20148;-66
2022/01/14 08:07:58;;;;;;;4.68;4.47;;;;;;;2.90;100.00;103832.97;6217108;23;20330;-66
2022/01/14 08:10:23;;;;;;;4.50;4.30;;;;;;;2.90;100.00;103830.34;6217726;23;20135;-66
2022/01/14 08:12:49;;;;;;;5.75;5.45;;;;;;;3.02;100.00;103841.31;6217618;23;20429;-66
2022/01/14 08:15:14;;;;;;;4.90;4.60;;;;;;;2.91;100.00;103841.75;6217015;23;20000;-67
2022/01/14 08:17:40;;;;;;;4.78;4.50;;;;;;;2.85;100.00;103825.78;6218252;23;20406;-68
2022/01/14 08:20:07;;;;;;;4.32;4.13;;;;;;;2.89;100.00;103832.91;6216475;23;20007;-66
2022/01/14 08:22:33;;;;;;;4.07;3.88;;;;;;;2.80;100.00;103838.75;6217804;23;20078;-67
2022/01/14 08:24:58;;;;;;;3.70;3.50;;;;;;;2.79;100.00;103828.16;6217685;23;20016;-66
2022/01/14 08:27:26;;;;;;;5.30;5.00;;;;;;;2.83;100.00;103816.97;6217843;23;20000;-67
2022/01/14 08:29:52;;;;;;;4.95;4.65;;;;;;;2.97;100.00;103832.38;6217196;23;20011;-66
2022/01/14 08:32:17;;;;;;;4.93;4.65;;;;;;;2.98;100.00;103828.91;6215117;23;20330;-65
2022/01/14 08:34:43;;;;;;;4.30;4.10;;;;;;;2.77;100.00;103837.75;6216522;23;20088;-69
2022/01/14 08:37:08;;;;;;;4.38;4.18;;;;;;;2.91;100.00;103847.91;6243635;23;20012;-65
2022/01/14 08:39:33;;;;;;;4.90;4.60;;;;;;;2.87;100.00;103856.50;6247288;23;20007;-65
2022/01/14 08:41:59;;;;;;;4.57;4.38;;;;;;;2.96;100.00;103846.31;6248893;23;20008;-65
2022/01/14 08:44:25;;;;;;;5.65;5.30;;;;;;;2.95;100.00;103844.53;6223880;23;20003;-66
2022/01/14 08:46:52;;;;;;;4.55;4.35;;;;;;;3.23;100.00;103853.41;6250250;23;20008;-66
2022/01/14 08:49:18;;;;;;;4.00;3.80;;;;;;;3.17;100.00;103854.06;6249439;23;20030;-65
2022/01/14 08:51:43;;;;;;;4.38;4.07;;;;;;;3.13;100.00;103850.47;6249131;23;20075;-67
2022/01/14 08:54:09;;;;;;;4.10;3.85;;;;;;;3.16;100.00;103849.66;6248915;23;20646;-66
2022/01/14 08:56:34;;;;;;;3.35;3.15;;;;;;;3.15;100.00;103854.00;6249728;23;20050;-66
2022/01/14 08:59:00;;;;;;;4.07;3.78;;;;;;;3.23;100.00;103854.28;6222932;23;20018;-68
2022/01/14 09:01:26;;;;;;;3.67;3.47;;;;;;;3.17;100.00;103835.69;6250292;23;20008;-66
2022/01/14 09:03:52;;;;;;;4.72;4.50;;;;;;;3.22;100.00;103841.09;6249410;23;20003;-66
2022/01/14 09:06:18;;;;;;;4.97;4.68;;;;;;;3.37;100.00;103839.00;6249113;23;20030;-65
2022/01/14 09:08:43;;;;;;;5.05;4.75;;;;;;;3.36;100.00;103830.22;6248894;23;20123;-66
2022/01/14 09:11:08;;;;;;;5.50;5.20;;;;;;;3.40;100.00;103828.59;6248978;23;20004;-65
2022/01/14 09:13:35;;;;;;;6.32;6.03;;;;;;;3.54;100.00;103827.34;6248833;23;20026;-66
2022/01/14 09:16:00;;;;;;;5.28;4.97;;;;;;;3.47;100.00;103830.63;6249390;23;20004;-67
2022/01/14 09:18:26;;;;;;;6.05;5.75;;;;;;;3.54;100.00;103825.59;6251204;23;20074;-67
2022/01/14 09:20:51;;;;;;;6.32;5.93;;;;;;;3.66;100.00;103832.97;6250950;23;20008;-67
2022/01/14 09:23:17;;;;;;;5.15;4.85;;;;;;;3.72;100.00;103833.22;6253240;23;20480;-67
2022/01/14 09:25:43;;;;;;;5.30;5.00;;;;;;;3.90;100.00;103841.69;6227676;23;20008;-67
2022/01/14 09:28:08;;;;;;;5.25;4.95;;;;;;;3.89;100.00;103837.28;6225461;23;20000;-68
2022/01/14 09:30:34;;;;;;;5.60;5.28;;;;;;;4.06;100.00;103842.22;6224477;23;20015;-69
2022/01/14 09:32:59;;;;;;;5.65;5.35;;;;;;;3.99;100.00;103849.84;6248220;23;20146;-67
2022/01/14 09:35:25;;;;;;;4.50;4.30;;;;;;;3.87;100.00;103824.09;6220340;23;20000;-66
2022/01/14 09:37:50;;;;;;;5.40;5.10;;;;;;;3.98;100.00;103827.03;6247881;23;20027;-67
2022/01/14 09:40:17;;;;;;;4.97;4.68;;;;;;;3.96;100.00;103834.88;6248494;23;20011;-66
2022/01/14 09:42:50;;;;;;;4.95;4.65;;;;;;;4.03;100.00;103844.78;6247855;23;20079;-67
2022/01/14 09:45:17;;;;;;;4.68;4.38;;;;;;;4.10;100.00;103851.09;6249393;23;20027;-67
2022/01/14 09:47:46;;;;;;;5.72;4.93;;;;;;;4.05;100.00;103847.44;6249195;23;20008;-67
2022/01/14 09:50:12;;;;;;;4.82;4.53;;;;;;;4.12;100.00;103837.16;6220867;23;20008;-66
2022/01/14 09:52:38;;;;;;;4.95;4.65;;;;;;;4.22;100.00;103833.06;6248050;23;20004;-66
2022/01/14 09:55:04;;;;;;;4.18;3.97;;;;;;;4.35;100.00;103838.75;6221001;23;20606;-66
2022/01/14 09:57:29;;;;;;;5.43;5.03;;;;;;;4.37;100.00;103841.41;6247549;23;20011;-66
2022/01/14 09:59:54;;;;;;;4.05;3.75;;;;;;;4.50;100.00;103828.69;6247859;23;20091;-68
2022/01/14 10:02:34;;;;;;;3.38;3.13;;;;;;;4.43;100.00;103839.88;6247988;23;20004;-67
2022/01/14 10:05:01;;;;;;;9.20;4.47;;;;;;;4.43;100.00;103829.34;6221648;23;20012;-67
2022/01/14 10:07:27;;;;;;;3.72;3.53;;;;;;;4.58;100.00;103828.91;6248024;23;20307;-65
2022/01/14 10:09:58;;;;;;;5.75;5.25;;;;;;;4.71;100.00;103826.66;6250137;23;20000;-66
2022/01/14 10:12:25;;;;;;;3.45;2.95;;;;;;;4.73;100.00;103830.25;6248413;23;20114;-66
2022/01/14 10:15:00;;;;;;;3.50;3.20;;;;;;;4.80;100.00;103819.88;6248438;23;20007;-66
2022/01/14 10:17:35;;;;;;;3.97;2.95;;;;;;;4.78;100.00;103821.56;6221004;23;20034;-67
2022/01/14 10:20:01;;;;;;;4.15;3.85;;;;;;;4.84;100.00;103809.47;6247592;23;20087;-67
2022/01/14 10:22:29;;;;;;;4.40;2.92;;;;;;;4.89;100.00;103807.88;6219890;23;20492;-66
2022/01/14 10:25:03;;;;;;;3.83;3.50;;;;;;;4.89;100.00;103799.06;6247788;23;20028;-67
2022/01/14 10:27:46;;;;;;;3.92;3.63;;;;;;;5.06;100.00;103796.03;6247433;23;20004;-69
2022/01/14 10:30:11;;;;;;;3.35;3.05;;;;;;;5.14;100.00;103791.88;6217200;23;20011;-68
2022/01/14 10:32:38;;;;;;;3.47;3.20;;;;;;;4.99;100.00;103788.84;6247995;23;19996;-67
2022/01/14 10:35:14;;;;;;;3.60;3.30;;;;;;;4.99;100.00;103780.94;6248509;23;20007;-67
2022/01/14 10:37:40;;;;;;;3.65;3.35;;;;;;;5.09;100.00;103779.44;6248071;23;20346;-68
2022/01/14 10:40:13;;;;;;;7.38;3.72;;;;;;;5.28;100.00;103777.31;6248362;23;20000;-67
2022/01/14 10:42:40;;;;;;;4.03;3.38;;;;;;;5.41;100.00;103767.97;6223119;23;20418;-68
2022/01/14 10:45:23;;;;;;;6.38;3.97;;;;;;;5.26;100.00;103768.50;6249729;23;20007;-68
2022/01/14 10:48:03;;;;;;;3.78;2.47;;;;;;;5.29;100.00;103771.22;6249311;23;20054;-67
2022/01/14 10:50:39;;;;;;;2.72;2.53;;;;;;;5.33;100.00;103773.06;6222214;23;20000;-67
2022/01/14 10:53:17;;;;;;;3.13;2.63;;;;;;;5.49;100.00;103767.31;6250171;23;20342;-68
2022/01/14 10:55:49;;;;;;;3.50;3.20;;;;;;;5.36;100.00;103754.69;6250147;23;20076;-68
2022/01/14 10:58:25;;;;;;;4.20;3.72;;;;;;;5.70;100.00;103759.03;6222822;23;20012;-67
2022/01/14 11:01:03;;;;;;;4.05;3.55;;;;;;;5.60;100.00;103752.66;6251013;23;20012;-67
2022/01/14 11:03:53;;;;;;;4.00;2.67;;;;;;;5.63;100.00;103744.81;6250462;23;20009;-67
2022/01/14 11:06:28;;;;;;;3.75;3.28;;;;;;;5.63;100.00;103738.63;6250182;23;20378;-67
2022/01/14 11:09:04;;;;;;;7.28;3.53;;;;;;;5.63;100.00;103733.38;6250951;23;20039;-67
2022/01/14 11:11:33;;;;;;;4.00;3.45;;;;;;;5.81;100.00;103729.44;6250827;23;20012;-68
2022/01/14 11:13:59;;;;;;;6.07;4.73;;;;;;;5.97;100.00;103714.88;6222483;23;20004;-68
2022/01/14 11:16:25;;;;;;;5.57;4.13;;;;;;;6.07;100.00;103711.53;6250050;23;20012;-68
2022/01/14 11:18:51;;;;;;;4.85;3.13;;;;;;;6.07;100.00;103719.47;6250853;23;20039;-67
2022/01/14 11:24:06;;;;;;;6.07;3.22;;;;;;;6.23;100.00;103716.28;6251212;23;20046;-67
2022/01/14 11:26:37;;;;;;;3.47;3.10;;;;;;;6.64;100.00;103709.19;6223743;23;20008;-67
2022/01/14 11:29:15;;;;;;;3.85;2.60;;;;;;;6.30;100.00;103710.28;6250453;23;20062;-66
2022/01/14 11:31:41;;;;;;;6.65;4.00;;;;;;;6.30;100.00;103712.03;6251559;23;20058;-67
2022/01/14 11:34:10;;;;;;;3.55;3.17;;;;;;;6.14;100.00;103713.47;6251339;23;20004;-67
2022/01/14 11:37:04;;;;;;;6.45;4.03;;;;;;;6.34;100.00;103696.28;5074714;28;20881;-66
2022/01/14 11:39:32;;;;;;;5.05;3.63;;;;;;;6.29;100.00;103695.31;5070324;28;20068;-66
2022/01/14 11:42:08;;;;;;;4.47;3.53;;;;;;;6.49;100.00;103698.34;5057816;28;20021;-68
2022/01/14 11:47:27;;;;;;;4.65;3.67;;;;;;;6.56;100.00;103690.56;5043673;28;20064;-68
2022/01/14 11:49:54;;;;;;;5.65;4.10;;;;;;;6.43;100.00;103708.78;5034212;28;20045;-67
2022/01/14 11:52:36;;;;;;;4.30;3.22;;;;;;;6.45;100.00;103691.22;5036147;28;20021;-67
2022/01/14 11:55:03;;;;;;;5.32;4.82;;;;;;;6.58;100.00;103690.59;5035250;28;20104;-69
2022/01/14 11:57:47;;;;;;;6.03;5.38;;;;;;;6.66;100.00;103687.25;5040857;28;20103;-68
2022/01/14 12:00:27;;;;;;;4.57;3.65;;;;;;;6.74;100.00;103684.75;5039298;28;20092;-68